Time;durP1;ratioP1;P1;durP2;ratioP2;P2;SDS_P1;SDS_P2;PMS_P1;PMS_P2;Temp;Humidity;BMP_temperature;BMP_pressure;BME280_temperature;BME280_humidity;BME280_pressure;Samples;Min_cycle;Max_cycle;Signal;HPM_P1;HPM_P2
2023/07/02 00:01:02;;;;;;;;;45.75;38.25;;;;;;;;5056992;28;9406;-90
2023/07/02 00:03:30;;;;;;;;;42.75;35.25;;;;;;;;5052034;28;9499;-90
2023/07/02 00:05:57;;;;;;;;;40.25;33.75;;;;;;;;5045272;28;9501;-90
2023/07/02 00:08:24;;;;;;;;;43.50;36.00;;;;;;;;5055739;28;9493;-92
2023/07/02 00:10:52;;;;;;;;;49.25;39.25;;;;;;;;5049782;28;9452;-89
2023/07/02 00:13:20;;;;;;;;;45.00;35.67;;;;;;;;5052703;28;9703;-89
2023/07/02 00:15:48;;;;;;;;;46.33;36.00;;;;;;;;5054912;28;9409;-89
2023/07/02 00:18:16;;;;;;;;;48.67;36.33;;;;;;;;5055489;28;9301;-92
2023/07/02 00:20:43;;;;;;;;;43.67;35.33;;;;;;;;5054183;28;9274;-93
2023/07/02 00:23:11;;;;;;;;;41.67;35.33;;;;;;;;5056850;28;9447;-93
2023/07/02 00:25:38;;;;;;;;;49.75;39.00;;;;;;;;5058015;28;9267;-92
2023/07/02 00:28:06;;;;;;;;;45.00;38.00;;;;;;;;5059594;28;9578;-91
2023/07/02 00:30:36;;;;;;;;;46.00;39.50;;;;;;;;5062209;28;9260;-91
2023/07/02 00:33:06;;;;;;;;;50.00;40.25;;;;;;;;5066677;28;9618;-92
2023/07/02 00:35:33;;;;;;;;;48.00;39.50;;;;;;;;5073424;28;9566;-91
2023/07/02 00:38:03;;;;;;;;;49.75;40.00;;;;;;;;5069593;28;9649;-96
2023/07/02 00:40:30;;;;;;;;;48.00;38.75;;;;;;;;5062538;28;9570;-95
2023/07/02 00:42:58;;;;;;;;;46.00;39.25;;;;;;;;5071004;28;9400;-93
2023/07/02 00:45:26;;;;;;;;;45.25;36.50;;;;;;;;5057195;28;9610;-96
2023/07/02 00:47:56;;;;;;;;;47.33;38.33;;;;;;;;5055519;28;9935;-95
2023/07/02 00:50:24;;;;;;;;;43.33;36.33;;;;;;;;5052972;28;9507;-96
2023/07/02 00:52:53;;;;;;;;;36.67;32.00;;;;;;;;5053273;28;9417;-94
2023/07/02 00:55:22;;;;;;;;;42.67;34.00;;;;;;;;5053552;28;9247;-96
2023/07/02 00:57:49;;;;;;;;;38.00;32.67;;;;;;;;5056862;28;9417;-96
2023/07/02 01:00:17;;;;;;;;;45.00;33.00;;;;;;;;5060217;28;9394;-94
2023/07/02 01:02:46;;;;;;;;;46.67;38.00;;;;;;;;5060787;28;9381;-93
2023/07/02 01:05:21;;;;;;;;;34.33;30.00;;;;;;;;5058811;28;9336;-92
2023/07/02 01:07:49;;;;;;;;;40.75;33.50;;;;;;;;5058992;28;9259;-90
2023/07/02 01:10:16;;;;;;;;;42.25;36.25;;;;;;;;5053297;28;9494;-90
2023/07/02 01:12:43;;;;;;;;;47.25;39.25;;;;;;;;5053207;28;9560;-93
2023/07/02 01:15:11;;;;;;;;;39.50;34.25;;;;;;;;5052575;28;9723;-93
2023/07/02 01:17:41;;;;;;;;;52.00;39.75;;;;;;;;5052924;28;9478;-90
2023/07/02 01:20:11;;;;;;;;;44.00;36.25;;;;;;;;5043480;28;9733;-90
2023/07/02 01:22:39;;;;;;;;;44.75;36.50;;;;;;;;5052883;28;9605;-92
2023/07/02 01:25:08;;;;;;;;;35.25;29.50;;;;;;;;5052704;28;9438;-90
2023/07/02 01:27:37;;;;;;;;;41.67;35.00;;;;;;;;5053306;28;9416;-92
2023/07/02 01:30:04;;;;;;;;;46.25;36.75;;;;;;;;5055170;28;9409;-92
2023/07/02 01:32:32;;;;;;;;;42.00;35.33;;;;;;;;5057571;28;9589;-94
2023/07/02 01:35:02;;;;;;;;;45.67;35.67;;;;;;;;5057631;28;9340;-94
2023/07/02 01:37:36;;;;;;;;;44.75;37.00;;;;;;;;5053888;28;9417;-93
2023/07/02 01:40:05;;;;;;;;;44.75;35.50;;;;;;;;5060670;28;9724;-92
2023/07/02 01:42:33;;;;;;;;;46.25;37.50;;;;;;;;5060506;28;9540;-92
2023/07/02 01:45:01;;;;;;;;;37.33;32.67;;;;;;;;5057672;28;9555;-91
2023/07/02 01:47:31;;;;;;;;;44.33;35.33;;;;;;;;5053711;28;9596;-95
2023/07/02 01:49:59;;;;;;;;;44.33;36.67;;;;;;;;5053096;28;9553;-92
2023/07/02 01:52:26;;;;;;;;;45.00;37.00;;;;;;;;5053244;28;9347;-91
2023/07/02 01:54:55;;;;;;;;;43.00;33.00;;;;;;;;5054447;28;9551;-91
2023/07/02 01:57:22;;;;;;;;;43.50;34.50;;;;;;;;5054175;28;9411;-92
2023/07/02 01:59:49;;;;;;;;;46.33;36.00;;;;;;;;5053132;28;10441;-92
2023/07/02 02:02:17;;;;;;;;;45.25;35.50;;;;;;;;5059009;28;9359;-92
2023/07/02 02:04:44;;;;;;;;;44.67;36.33;;;;;;;;5054720;28;9439;-92
2023/07/02 02:07:15;;;;;;;;;46.50;35.25;;;;;;;;5060874;28;9511;-89
2023/07/02 02:09:49;;;;;;;;;44.25;35.25;;;;;;;;5052707;28;9555;-96
2023/07/02 02:12:18;;;;;;;;;40.00;35.00;;;;;;;;5067206;28;9459;-95
2023/07/02 02:14:47;;;;;;;;;40.00;33.67;;;;;;;;5071521;28;9374;-92
2023/07/02 02:17:20;;;;;;;;;39.75;33.00;;;;;;;;5071632;28;9495;-89
2023/07/02 02:19:50;;;;;;;;;40.50;33.75;;;;;;;;5071722;28;9387;-90
2023/07/02 02:22:37;;;;;;;;;39.75;34.75;;;;;;;;5071896;28;9701;-90
2023/07/02 02:25:07;;;;;;;;;47.25;36.25;;;;;;;;5038690;28;9756;-93
2023/07/02 02:27:37;;;;;;;;;41.75;34.50;;;;;;;;5057408;28;9748;-94
2023/07/02 02:30:10;;;;;;;;;45.25;34.75;;;;;;;;5051874;28;10229;-96
2023/07/02 02:32:38;;;;;;;;;38.25;33.25;;;;;;;;5051946;28;9689;-89
2023/07/02 02:35:06;;;;;;;;;37.00;30.25;;;;;;;;5045163;28;9692;-94
2023/07/02 02:37:36;;;;;;;;;39.50;32.75;;;;;;;;5050920;28;9540;-90
2023/07/02 02:40:05;;;;;;;;;38.25;32.00;;;;;;;;5055654;28;9555;-93
2023/07/02 02:42:33;;;;;;;;;39.00;33.33;;;;;;;;5053170;28;9791;-94
2023/07/02 02:45:01;;;;;;;;;44.50;35.00;;;;;;;;5052688;28;9650;-95
2023/07/02 02:47:29;;;;;;;;;38.50;34.50;;;;;;;;5052838;28;9589;-96
2023/07/02 02:49:56;;;;;;;;;38.75;35.00;;;;;;;;5053455;28;9650;-96
2023/07/02 02:52:24;;;;;;;;;38.25;32.25;;;;;;;;5065310;28;9572;-96
2023/07/02 02:54:52;;;;;;;;;41.25;34.50;;;;;;;;5071548;28;9696;-92
2023/07/02 02:57:20;;;;;;;;;39.00;33.25;;;;;;;;5073395;28;10403;-96
2023/07/02 02:59:47;;;;;;;;;38.75;34.50;;;;;;;;5065250;28;9688;-91
2023/07/02 03:02:16;;;;;;;;;31.00;29.00;;;;;;;;5067798;28;9508;-92
2023/07/02 03:04:44;;;;;;;;;37.75;33.75;;;;;;;;5059196;28;9707;-94
2023/07/02 03:07:15;;;;;;;;;39.25;34.75;;;;;;;;5057138;28;9776;-95
2023/07/02 03:09:42;;;;;;;;;46.00;35.00;;;;;;;;5052305;28;9741;-93
2023/07/02 03:12:13;;;;;;;;;37.50;32.00;;;;;;;;5051076;28;9770;-94
2023/07/02 03:14:42;;;;;;;;;32.00;31.00;;;;;;;;5051042;28;9750;-94
2023/07/02 03:17:13;;;;;;;;;36.00;32.25;;;;;;;;5052495;28;9784;-93
2023/07/02 03:19:44;;;;;;;;;39.75;35.25;;;;;;;;5052312;28;9641;-95
2023/07/02 03:22:14;;;;;;;;;36.25;33.00;;;;;;;;5051489;28;9650;-95
2023/07/02 03:24:45;;;;;;;;;34.50;31.00;;;;;;;;5058501;28;9706;-94
2023/07/02 03:27:13;;;;;;;;;41.00;31.75;;;;;;;;5060735;28;9597;-93
2023/07/02 03:29:43;;;;;;;;;46.00;38.75;;;;;;;;5052541;28;9647;-93
2023/07/02 03:32:11;;;;;;;;;38.75;33.50;;;;;;;;5052656;28;9816;-92
2023/07/02 03:34:38;;;;;;;;;44.00;31.25;;;;;;;;5058208;28;9797;-93
2023/07/02 03:37:12;;;;;;;;;43.50;34.75;;;;;;;;5071923;28;9868;-94
2023/07/02 03:39:41;;;;;;;;;41.50;34.25;;;;;;;;5040138;28;9730;-91
2023/07/02 03:42:09;;;;;;;;;37.25;31.50;;;;;;;;5055463;28;9753;-93
2023/07/02 03:44:36;;;;;;;;;41.00;35.75;;;;;;;;5056309;28;9709;-94
2023/07/02 03:47:04;;;;;;;;;36.50;31.75;;;;;;;;5055124;28;9653;-92
2023/07/02 03:49:31;;;;;;;;;36.00;33.25;;;;;;;;5056988;28;9560;-92
2023/07/02 03:51:59;;;;;;;;;40.25;33.00;;;;;;;;5058945;28;9584;-93
2023/07/02 03:54:30;;;;;;;;;30.25;29.00;;;;;;;;5054617;28;9547;-92
2023/07/02 03:56:58;;;;;;;;;45.50;33.25;;;;;;;;5063998;28;9582;-90
2023/07/02 03:59:25;;;;;;;;;39.25;32.50;;;;;;;;5050718;28;9704;-92
2023/07/02 04:01:53;;;;;;;;;36.50;30.50;;;;;;;;5049158;28;9611;-90
2023/07/02 04:04:20;;;;;;;;;38.50;33.00;;;;;;;;5048820;28;9556;-92
2023/07/02 04:06:47;;;;;;;;;33.50;31.25;;;;;;;;5049058;28;9651;-91
2023/07/02 04:09:15;;;;;;;;;36.50;29.50;;;;;;;;5050183;28;9733;-93
2023/07/02 04:11:43;;;;;;;;;36.75;32.00;;;;;;;;5055126;28;9622;-92
2023/07/02 04:14:13;;;;;;;;;41.25;34.75;;;;;;;;5053849;28;9503;-92
2023/07/02 04:16:41;;;;;;;;;36.25;33.25;;;;;;;;5060210;28;9867;-91
2023/07/02 04:19:10;;;;;;;;;41.25;33.75;;;;;;;;5056154;28;9806;-92
2023/07/02 04:21:37;;;;;;;;;40.00;34.75;;;;;;;;5050516;28;9723;-91
2023/07/02 04:24:05;;;;;;;;;37.25;34.25;;;;;;;;5048993;28;9913;-92
2023/07/02 04:26:33;;;;;;;;;34.50;32.00;;;;;;;;5054979;28;9730;-91
2023/07/02 04:29:02;;;;;;;;;40.75;33.50;;;;;;;;5055839;28;9442;-90
2023/07/02 04:31:29;;;;;;;;;34.50;32.00;;;;;;;;5055000;28;9569;-91
2023/07/02 04:33:58;;;;;;;;;34.00;30.25;;;;;;;;5052066;28;9553;-91
2023/07/02 04:36:25;;;;;;;;;42.00;33.00;;;;;;;;5057398;28;9478;-93
2023/07/02 04:38:52;;;;;;;;;36.25;32.25;;;;;;;;5054268;28;9572;-93
2023/07/02 04:41:20;;;;;;;;;36.00;31.67;;;;;;;;5049874;28;9556;-94
2023/07/02 04:43:48;;;;;;;;;38.00;33.75;;;;;;;;5051124;28;9459;-94
2023/07/02 04:46:17;;;;;;;;;31.67;29.67;;;;;;;;5051169;28;9378;-94
2023/07/02 04:48:45;;;;;;;;;35.75;32.00;;;;;;;;5051452;28;9309;-92
2023/07/02 04:51:12;;;;;;;;;33.33;30.33;;;;;;;;5061593;28;9474;-92
2023/07/02 04:53:39;;;;;;;;;35.75;31.50;;;;;;;;5057775;28;9336;-91
2023/07/02 04:56:07;;;;;;;;;32.00;28.00;;;;;;;;5055718;28;9392;-92
2023/07/02 04:58:34;;;;;;;;;37.75;32.75;;;;;;;;5061036;28;9476;-91
2023/07/02 05:01:01;;;;;;;;;30.67;30.00;;;;;;;;5054653;28;9544;-91
2023/07/02 05:03:30;;;;;;;;;22.00;15.75;;;;;;;;5053813;28;9363;-91
2023/07/02 05:05:58;;;;;;;;;33.67;28.33;;;;;;;;5055340;28;9994;-92
2023/07/02 05:08:25;;;;;;;;;34.33;30.67;;;;;;;;5061776;28;9268;-93
2023/07/02 05:10:53;;;;;;;;;36.33;29.67;;;;;;;;5053422;28;9188;-94
2023/07/02 05:13:20;;;;;;;;;37.00;32.00;;;;;;;;5066781;28;9243;-93
2023/07/02 05:15:48;;;;;;;;;32.67;30.33;;;;;;;;5057626;28;9321;-96
2023/07/02 05:18:16;;;;;;;;;35.67;32.33;;;;;;;;5056296;28;9267;-91
2023/07/02 05:20:45;;;;;;;;;30.67;29.67;;;;;;;;5054208;28;9321;-93
2023/07/02 05:23:12;;;;;;;;;38.67;34.00;;;;;;;;5055117;28;9092;-91
2023/07/02 05:25:40;;;;;;;;;31.00;27.33;;;;;;;;5053977;28;9355;-94
2023/07/02 05:28:14;;;;;;;;;32.00;30.00;;;;;;;;5057408;28;9164;-94
2023/07/02 05:30:44;;;;;;;;;37.33;32.00;;;;;;;;5061373;28;9213;-96
2023/07/02 05:33:15;;;;;;;;;35.00;31.67;;;;;;;;5058689;28;9198;-89
2023/07/02 05:35:45;;;;;;;;;28.00;27.00;;;;;;;;5054425;28;9259;-79
2023/07/02 05:38:13;;;;;;;;;40.00;31.67;;;;;;;;5062875;28;9109;-89
2023/07/02 05:40:42;;;;;;;;;32.33;28.00;;;;;;;;5059196;28;9137;-82
2023/07/02 05:43:11;;;;;;;;;27.33;27.33;;;;;;;;5051769;28;9001;-84
2023/07/02 05:45:39;;;;;;;;;33.33;30.00;;;;;;;;5050227;28;9024;-81
2023/07/02 05:48:06;;;;;;;;;33.00;30.33;;;;;;;;5043913;28;9040;-84
2023/07/02 05:50:33;;;;;;;;;33.67;29.33;;;;;;;;5051215;28;9040;-82
2023/07/02 05:53:02;;;;;;;;;24.33;24.33;;;;;;;;5049837;28;9026;-77
2023/07/02 05:55:29;;;;;;;;;39.00;30.67;;;;;;;;5050649;28;8954;-78
2023/07/02 05:58:01;;;;;;;;;33.00;29.00;;;;;;;;5054981;28;9009;-81
2023/07/02 06:00:28;;;;;;;;;31.33;29.33;;;;;;;;5055326;28;8931;-75
2023/07/02 06:02:55;;;;;;;;;30.67;29.00;;;;;;;;5051052;28;9060;-80
2023/07/02 06:05:23;;;;;;;;;35.75;28.25;;;;;;;;5050415;28;8958;-76
2023/07/02 06:07:50;;;;;;;;;29.00;24.50;;;;;;;;5050864;28;8838;-78
2023/07/02 06:10:18;;;;;;;;;30.75;29.25;;;;;;;;5050541;28;8984;-77
2023/07/02 06:12:46;;;;;;;;;30.25;26.00;;;;;;;;5048406;28;9654;-77
2023/07/02 06:15:13;;;;;;;;;33.75;29.00;;;;;;;;5052627;28;8988;-84
2023/07/02 06:17:43;;;;;;;;;30.50;29.25;;;;;;;;5050103;28;8849;-82
2023/07/02 06:20:12;;;;;;;;;33.75;29.00;;;;;;;;5063033;28;8858;-82
2023/07/02 06:22:40;;;;;;;;;40.67;33.00;;;;;;;;5051462;28;8964;-77
2023/07/02 06:25:08;;;;;;;;;28.00;24.50;;;;;;;;5063858;28;8959;-78
2023/07/02 06:27:36;;;;;;;;;27.25;23.25;;;;;;;;5049340;28;8975;-80
2023/07/02 06:30:04;;;;;;;;;30.50;27.25;;;;;;;;5048355;28;8873;-78
2023/07/02 06:32:32;;;;;;;;;33.00;26.67;;;;;;;;5049874;28;8834;-83
2023/07/02 06:34:59;;;;;;;;;32.75;24.50;;;;;;;;5049128;28;8854;-80
2023/07/02 06:37:26;;;;;;;;;24.50;24.00;;;;;;;;5049079;28;8858;-85
2023/07/02 06:39:53;;;;;;;;;29.00;26.00;;;;;;;;5048513;28;8875;-81
2023/07/02 06:42:20;;;;;;;;;27.50;24.00;;;;;;;;5050244;28;8834;-88
2023/07/02 06:44:49;;;;;;;;;32.00;29.75;;;;;;;;5055565;28;8945;-79
2023/07/02 06:47:16;;;;;;;;;30.50;26.25;;;;;;;;5055867;28;8869;-86
2023/07/02 06:49:44;;;;;;;;;27.75;24.50;;;;;;;;5055983;28;8955;-81
2023/07/02 06:52:11;;;;;;;;;26.75;23.25;;;;;;;;5051507;28;9090;-85
2023/07/02 06:54:38;;;;;;;;;30.00;28.00;;;;;;;;5048036;28;8976;-85
2023/07/02 06:57:06;;;;;;;;;29.25;25.25;;;;;;;;5052617;28;8829;-84
2023/07/02 06:59:33;;;;;;;;;28.00;27.00;;;;;;;;5052851;28;8873;-77
2023/07/02 07:02:02;;;;;;;;;24.50;24.00;;;;;;;;5052230;28;8829;-81
2023/07/02 07:04:29;;;;;;;;;35.00;27.25;;;;;;;;5052005;28;8927;-79
2023/07/02 07:06:57;;;;;;;;;26.00;24.50;;;;;;;;5055433;28;8985;-75
2023/07/02 07:09:25;;;;;;;;;30.25;26.00;;;;;;;;5061152;28;8976;-75
2023/07/02 07:11:53;;;;;;;;;31.50;28.25;;;;;;;;5060781;28;8874;-79
2023/07/02 07:14:20;;;;;;;;;25.25;25.25;;;;;;;;5048951;28;8861;-77
2023/07/02 07:16:47;;;;;;;;;30.75;26.00;;;;;;;;5047269;28;8853;-78
2023/07/02 07:19:16;;;;;;;;;29.75;28.50;;;;;;;;5048173;28;8850;-80
2023/07/02 07:21:43;;;;;;;;;24.75;22.75;;;;;;;;5048455;28;8856;-80
2023/07/02 07:24:11;;;;;;;;;25.50;21.50;;;;;;;;5048053;28;8861;-78
2023/07/02 07:26:38;;;;;;;;;24.25;22.00;;;;;;;;5047812;28;8888;-78
2023/07/02 07:29:06;;;;;;;;;30.50;25.75;;;;;;;;5049049;28;8934;-78
2023/07/02 07:31:33;;;;;;;;;23.25;22.25;;;;;;;;5047413;28;8920;-78
2023/07/02 07:34:00;;;;;;;;;22.25;22.25;;;;;;;;5047869;28;8873;-78
2023/07/02 07:36:28;;;;;;;;;22.25;21.25;;;;;;;;5047955;28;8885;-78
2023/07/02 07:38:56;;;;;;;;;22.00;21.00;;;;;;;;5062664;28;8866;-78
2023/07/02 07:41:23;;;;;;;;;20.00;18.00;;;;;;;;5058548;28;8972;-78
2023/07/02 07:43:50;;;;;;;;;21.75;18.00;;;;;;;;5047011;28;9008;-77
2023/07/02 07:46:17;;;;;;;;;24.25;22.00;;;;;;;;5049655;28;9020;-80
2023/07/02 07:48:45;;;;;;;;;21.00;18.00;;;;;;;;5047712;28;8867;-83
2023/07/02 07:51:12;;;;;;;;;25.75;21.00;;;;;;;;5048116;28;8884;-80
2023/07/02 07:53:41;;;;;;;;;26.75;21.75;;;;;;;;5048504;28;8869;-84
2023/07/02 07:56:08;;;;;;;;;19.75;17.25;;;;;;;;5048882;28;8845;-83
2023/07/02 07:58:35;;;;;;;;;22.25;19.00;;;;;;;;5049089;28;8868;-82
2023/07/02 08:01:03;;;;;;;;;24.25;22.50;;;;;;;;5048919;28;8916;-83
2023/07/02 08:03:30;;;;;;;;;19.00;14.25;;;;;;;;5047672;28;9228;-85
2023/07/02 08:05:57;;;;;;;;;19.25;19.00;;;;;;;;5049446;28;8887;-83
2023/07/02 08:08:24;;;;;;;;;19.00;17.25;;;;;;;;5050610;28;8979;-78
2023/07/02 08:10:53;;;;;;;;;25.75;18.50;;;;;;;;5048673;28;8854;-81
2023/07/02 08:13:20;;;;;;;;;20.75;18.75;;;;;;;;5050644;28;8881;-86
2023/07/02 08:15:48;;;;;;;;;16.00;15.25;;;;;;;;5048884;28;8885;-87
2023/07/02 08:18:15;;;;;;;;;19.50;17.75;;;;;;;;5047260;28;8845;-82
2023/07/02 08:20:42;;;;;;;;;23.50;21.50;;;;;;;;5050114;28;8838;-87
2023/07/02 08:23:11;;;;;;;;;24.50;20.50;;;;;;;;5051791;28;8879;-88
2023/07/02 08:25:38;;;;;;;;;24.00;22.00;;;;;;;;5049564;28;8865;-82
2023/07/02 08:28:07;;;;;;;;;18.50;14.75;;;;;;;;5048805;28;8984;-83
2023/07/02 08:30:34;;;;;;;;;20.50;17.50;;;;;;;;5048023;28;8781;-89
2023/07/02 08:33:01;;;;;;;;;18.00;14.25;;;;;;;;5045291;28;8900;-86
2023/07/02 08:35:29;;;;;;;;;16.75;16.75;;;;;;;;5049414;28;8846;-87
2023/07/02 08:37:56;;;;;;;;;18.25;16.50;;;;;;;;5054631;28;9019;-87
2023/07/02 08:40:24;;;;;;;;;21.25;18.25;;;;;;;;5055486;28;8842;-90
2023/07/02 08:42:51;;;;;;;;;18.75;18.00;;;;;;;;5057198;28;8957;-87
2023/07/02 08:45:21;;;;;;;;;16.25;16.25;;;;;;;;5061249;28;8874;-88
2023/07/02 08:47:50;;;;;;;;;19.25;18.00;;;;;;;;5064429;28;8993;-92
2023/07/02 08:50:17;;;;;;;;;22.25;20.50;;;;;;;;5067625;28;8858;-83
2023/07/02 08:52:45;;;;;;;;;24.50;24.50;;;;;;;;5060374;28;9700;-80
2023/07/02 08:55:12;;;;;;;;;20.75;19.00;;;;;;;;5056540;28;8868;-89
2023/07/02 08:57:39;;;;;;;;;24.25;21.00;;;;;;;;5050879;28;8881;-81
2023/07/02 09:00:10;;;;;;;;;17.50;13.50;;;;;;;;5050563;28;8852;-83
2023/07/02 09:02:39;;;;;;;;;25.00;23.00;;;;;;;;5054236;28;8964;-80
2023/07/02 09:05:07;;;;;;;;;18.75;18.75;;;;;;;;5063238;28;8862;-82
2023/07/02 09:07:45;;;;;;;;;25.75;20.25;;;;;;;;5070568;28;8882;-80
2023/07/02 09:10:12;;;;;;;;;20.00;16.75;;;;;;;;5062236;28;8861;-86
2023/07/02 09:12:42;;;;;;;;;29.75;28.00;;;;;;;;5056785;28;8911;-86
2023/07/02 09:15:10;;;;;;;;;23.75;21.50;;;;;;;;5064593;28;9012;-82
2023/07/02 09:17:39;;;;;;;;;18.80;15.40;;;;;;;;5071557;28;8846;-86
2023/07/02 09:20:08;;;;;;;;;19.40;17.40;;;;;;;;5045374;28;8845;-86
2023/07/02 09:22:35;;;;;;;;;19.25;18.50;;;;;;;;5055336;28;8865;-82
2023/07/02 09:25:03;;;;;;;;;19.25;18.75;;;;;;;;5045595;28;8986;-90
2023/07/02 09:27:38;;;;;;;;;19.25;19.00;;;;;;;;5048042;28;8849;-86
2023/07/02 09:30:13;;;;;;;;;23.00;20.75;;;;;;;;5055553;28;8861;-86
2023/07/02 09:32:42;;;;;;;;;17.00;14.50;;;;;;;;5051767;28;8852;-86
2023/07/02 09:35:10;;;;;;;;;25.50;22.00;;;;;;;;5053334;28;9850;-87
2023/07/02 09:37:38;;;;;;;;;19.25;19.25;;;;;;;;5053501;28;8855;-87
2023/07/02 09:40:08;;;;;;;;;18.00;18.00;;;;;;;;5052815;28;8869;-88
2023/07/02 09:42:36;;;;;;;;;14.25;12.25;;;;;;;;5056861;28;8854;-86
2023/07/02 09:45:07;;;;;;;;;17.75;15.25;;;;;;;;5058941;28;8968;-88
2023/07/02 09:47:38;;;;;;;;;19.75;18.00;;;;;;;;5041098;28;8849;-86
2023/07/02 09:50:08;;;;;;;;;24.00;19.75;;;;;;;;5055645;28;8899;-83
2023/07/02 09:52:36;;;;;;;;;17.50;15.75;;;;;;;;5052274;28;8861;-83
2023/07/02 09:55:04;;;;;;;;;17.25;17.25;;;;;;;;5056286;28;8871;-88
2023/07/02 09:57:32;;;;;;;;;26.25;20.50;;;;;;;;5057276;28;8966;-87
2023/07/02 10:00:00;;;;;;;;;21.20;17.20;;;;;;;;5056953;28;8857;-83
2023/07/02 10:02:27;;;;;;;;;19.00;17.25;;;;;;;;5055631;28;8802;-78
2023/07/02 10:04:56;;;;;;;;;16.50;14.50;;;;;;;;5052593;28;8877;-85
2023/07/02 10:07:33;;;;;;;;;18.50;16.50;;;;;;;;5052444;28;8899;-88
2023/07/02 10:10:00;;;;;;;;;17.25;16.50;;;;;;;;5059082;28;8898;-91
2023/07/02 10:12:29;;;;;;;;;22.25;19.75;;;;;;;;5055692;28;8861;-88
2023/07/02 10:14:58;;;;;;;;;17.20;14.80;;;;;;;;5049686;28;8884;-89
2023/07/02 10:17:27;;;;;;;;;16.20;16.20;;;;;;;;5055542;28;8869;-87
2023/07/02 10:19:55;;;;;;;;;21.20;18.20;;;;;;;;5058040;28;8959;-88
2023/07/02 10:22:47;;;;;;;;;16.40;15.60;;;;;;;;5057183;28;8983;-83
2023/07/02 10:25:25;;;;;;;;;18.20;14.60;;;;;;;;5044022;28;8872;-86
2023/07/02 10:27:52;;;;;;;;;22.20;21.00;;;;;;;;5065143;28;9344;-82
2023/07/02 10:30:20;;;;;;;;;23.00;20.75;;;;;;;;5062109;28;8984;-78
2023/07/02 10:32:47;;;;;;;;;20.40;20.00;;;;;;;;5055716;28;8865;-80
2023/07/02 10:35:17;;;;;;;;;17.80;15.60;;;;;;;;5066740;28;9032;-84
2023/07/02 10:37:46;;;;;;;;;18.00;18.00;;;;;;;;5053092;28;8986;-80
2023/07/02 10:40:14;;;;;;;;;22.40;19.20;;;;;;;;5055237;28;8863;-77
2023/07/02 10:42:48;;;;;;;;;21.25;18.75;;;;;;;;5057077;28;8911;-79
2023/07/02 10:45:16;;;;;;;;;18.00;17.20;;;;;;;;5043632;28;8972;-82
2023/07/02 10:47:43;;;;;;;;;16.20;14.00;;;;;;;;5058209;28;8942;-78
2023/07/02 10:50:18;;;;;;;;;17.20;16.80;;;;;;;;5063831;28;8854;-75
2023/07/02 10:52:46;;;;;;;;;22.20;19.20;;;;;;;;5056391;28;8858;-77
2023/07/02 10:55:18;;;;;;;;;16.20;15.00;;;;;;;;5058236;28;8857;-81
2023/07/02 10:57:45;;;;;;;;;17.60;17.20;;;;;;;;5049402;28;8846;-82
2023/07/02 11:00:14;;;;;;;;;23.20;16.80;;;;;;;;5048668;28;8880;-86
2023/07/02 11:02:41;;;;;;;;;20.60;20.60;;;;;;;;5049600;28;8865;-80
2023/07/02 11:05:12;;;;;;;;;22.00;20.60;;;;;;;;5050476;28;8881;-84
2023/07/02 11:07:39;;;;;;;;;24.20;17.00;;;;;;;;5050023;28;8857;-85
2023/07/02 11:10:10;;;;;;;;;20.60;18.80;;;;;;;;5051330;28;8857;-85
2023/07/02 11:12:37;;;;;;;;;16.20;14.40;;;;;;;;5062818;28;8851;-81
2023/07/02 11:15:13;;;;;;;;;17.60;15.80;;;;;;;;5055524;28;8889;-81
2023/07/02 11:17:43;;;;;;;;;18.80;18.80;;;;;;;;5060631;28;8883;-78
2023/07/02 11:20:11;;;;;;;;;24.80;21.00;;;;;;;;5057281;28;8864;-85
2023/07/02 11:22:40;;;;;;;;;24.20;19.20;;;;;;;;5044926;28;8881;-83
2023/07/02 11:25:18;;;;;;;;;16.80;16.20;;;;;;;;5050205;28;8888;-84
2023/07/02 11:27:46;;;;;;;;;19.00;19.00;;;;;;;;5057965;28;8845;-89
2023/07/02 11:30:14;;;;;;;;;17.80;15.60;;;;;;;;5058375;28;8859;-83
2023/07/02 11:32:51;;;;;;;;;19.00;16.60;;;;;;;;5062158;28;8869;-88
2023/07/02 11:35:19;;;;;;;;;22.80;20.40;;;;;;;;5064497;28;8884;-82
2023/07/02 11:37:48;;;;;;;;;21.20;17.60;;;;;;;;5052974;28;8968;-82
2023/07/02 11:40:18;;;;;;;;;21.20;16.60;;;;;;;;5055091;28;8883;-75
2023/07/02 11:42:46;;;;;;;;;19.00;15.80;;;;;;;;5062785;28;8850;-81
2023/07/02 11:45:13;;;;;;;;;16.20;16.00;;;;;;;;5056806;28;8841;-90
2023/07/02 11:47:43;;;;;;;;;20.80;17.40;;;;;;;;5043083;28;8966;-87
2023/07/02 11:50:11;;;;;;;;;16.80;16.80;;;;;;;;5045743;28;8852;-86
2023/07/02 11:52:39;;;;;;;;;25.40;20.00;;;;;;;;5057834;28;8846;-86
2023/07/02 11:55:07;;;;;;;;;20.60;19.20;;;;;;;;5050635;28;8970;-88
2023/07/02 11:57:35;;;;;;;;;19.20;17.80;;;;;;;;5052456;28;8893;-89
2023/07/02 12:00:03;;;;;;;;;18.00;15.40;;;;;;;;5051456;28;8853;-74
2023/07/02 12:02:30;;;;;;;;;15.20;12.60;;;;;;;;5067534;28;8869;-82
2023/07/02 12:04:57;;;;;;;;;20.40;18.60;;;;;;;;5046427;28;8895;-82
2023/07/02 12:07:25;;;;;;;;;24.40;19.80;;;;;;;;5041258;28;9002;-78
2023/07/02 12:09:52;;;;;;;;;17.20;15.20;;;;;;;;5038778;28;8884;-77
2023/07/02 12:12:19;;;;;;;;;19.20;19.20;;;;;;;;5052924;28;8862;-81
2023/07/02 12:14:48;;;;;;;;;21.75;21.50;;;;;;;;5057106;28;9694;-78
2023/07/02 12:17:15;;;;;;;;;29.75;25.00;;;;;;;;5051934;28;8854;-77
2023/07/02 12:19:43;;;;;;;;;17.60;15.80;;;;;;;;5052921;28;8849;-81
2023/07/02 12:22:10;;;;;;;;;13.60;13.00;;;;;;;;5053705;28;8984;-77
2023/07/02 12:24:40;;;;;;;;;22.40;19.40;;;;;;;;5053238;28;8877;-87
2023/07/02 12:27:07;;;;;;;;;25.20;22.20;;;;;;;;5056429;28;8862;-77
2023/07/02 12:29:36;;;;;;;;;18.80;16.60;;;;;;;;5061131;28;8838;-86
2023/07/02 12:32:06;;;;;;;;;20.00;16.60;;;;;;;;5062902;28;8822;-75
2023/07/02 12:34:33;;;;;;;;;17.60;15.00;;;;;;;;5059752;28;8881;-75
2023/07/02 12:37:00;;;;;;;;;14.60;14.60;;;;;;;;5058760;28;8877;-73
2023/07/02 12:39:27;;;;;;;;;15.80;15.80;;;;;;;;5058323;28;8941;-75
2023/07/02 12:41:55;;;;;;;;;20.40;15.60;;;;;;;;5052612;28;8879;-75
2023/07/02 12:44:22;;;;;;;;;18.40;16.60;;;;;;;;5060919;28;8849;-86
2023/07/02 12:46:49;;;;;;;;;20.00;16.60;;;;;;;;5056179;28;8975;-88
2023/07/02 12:49:20;;;;;;;;;13.60;13.60;;;;;;;;5068764;28;8877;-81
2023/07/02 12:51:48;;;;;;;;;16.00;12.60;;;;;;;;5055696;28;8857;-86
2023/07/02 12:54:16;;;;;;;;;19.60;15.60;;;;;;;;5052914;28;8845;-77
2023/07/02 12:56:43;;;;;;;;;15.20;14.20;;;;;;;;5064484;28;8873;-82
2023/07/02 12:59:13;;;;;;;;;15.00;13.60;;;;;;;;5049679;28;8976;-84
2023/07/02 13:01:40;;;;;;;;;18.20;15.20;;;;;;;;5056783;28;8787;-83
2023/07/02 13:04:07;;;;;;;;;12.60;12.60;;;;;;;;5047154;28;8891;-88
2023/07/02 13:06:39;;;;;;;;;13.20;10.60;;;;;;;;5058794;28;8865;-85
2023/07/02 13:09:07;;;;;;;;;15.00;15.00;;;;;;;;5058730;28;8842;-85
2023/07/02 13:11:34;;;;;;;;;21.20;18.40;;;;;;;;5065427;28;8869;-85
2023/07/02 13:14:01;;;;;;;;;15.40;12.20;;;;;;;;5062675;28;8853;-80
2023/07/02 13:16:29;;;;;;;;;12.80;12.80;;;;;;;;5065932;28;8891;-81
2023/07/02 13:18:56;;;;;;;;;16.00;14.80;;;;;;;;5058550;28;8853;-88
2023/07/02 13:21:24;;;;;;;;;19.60;16.20;;;;;;;;5055812;28;8837;-89
2023/07/02 13:23:52;;;;;;;;;18.00;13.20;;;;;;;;5053259;28;8841;-89
2023/07/02 13:26:19;;;;;;;;;13.80;11.80;;;;;;;;5053746;28;8846;-82
2023/07/02 13:28:48;;;;;;;;;14.40;12.60;;;;;;;;5056910;28;8880;-88
2023/07/02 13:31:15;;;;;;;;;13.00;13.00;;;;;;;;5054968;28;8810;-90
2023/07/02 13:33:42;;;;;;;;;18.00;16.20;;;;;;;;5055515;28;8869;-82
2023/07/02 13:36:10;;;;;;;;;8.00;8.00;;;;;;;;5071913;28;8855;-87
2023/07/02 13:38:37;;;;;;;;;10.60;10.60;;;;;;;;5064973;28;8864;-89
2023/07/02 13:41:05;;;;;;;;;18.00;16.60;;;;;;;;5065107;28;8873;-83
2023/07/02 13:43:33;;;;;;;;;8.60;8.60;;;;;;;;5051739;28;9003;-79
2023/07/02 13:46:00;;;;;;;;;10.00;10.00;;;;;;;;5057818;28;8845;-86
2023/07/02 13:48:27;;;;;;;;;7.20;7.20;;;;;;;;5052182;28;8861;-81
2023/07/02 13:50:57;;;;;;;;;16.20;9.80;;;;;;;;5062834;28;8838;-87
2023/07/02 13:53:24;;;;;;;;;13.40;9.80;;;;;;;;5068813;28;8873;-85
2023/07/02 13:55:52;;;;;;;;;6.20;6.20;;;;;;;;5056417;28;8858;-86
2023/07/02 13:58:20;;;;;;;;;6.60;6.60;;;;;;;;5054303;28;8964;-78
2023/07/02 14:00:49;;;;;;;;;10.80;7.60;;;;;;;;5053472;28;8928;-89
2023/07/02 14:03:16;;;;;;;;;9.60;9.60;;;;;;;;5063200;28;8841;-88
2023/07/02 14:05:43;;;;;;;;;6.40;6.40;;;;;;;;5051223;28;8988;-86
2023/07/02 14:08:13;;;;;;;;;9.20;7.60;;;;;;;;5050516;28;8948;-88
2023/07/02 14:10:43;;;;;;;;;11.20;9.80;;;;;;;;5049935;28;8849;-79
2023/07/02 14:13:14;;;;;;;;;9.00;6.20;;;;;;;;5049696;28;8838;-88
2023/07/02 14:15:41;;;;;;;;;7.60;7.20;;;;;;;;5061260;28;8877;-82
2023/07/02 14:18:10;;;;;;;;;5.00;5.00;;;;;;;;5052192;28;9310;-85
2023/07/02 14:20:37;;;;;;;;;6.60;5.20;;;;;;;;5050765;28;8964;-90
2023/07/02 14:23:04;;;;;;;;;5.60;4.80;;;;;;;;5059796;28;8953;-77
2023/07/02 14:25:31;;;;;;;;;5.80;4.80;;;;;;;;5050324;28;9727;-77
2023/07/02 14:27:58;;;;;;;;;10.20;7.20;;;;;;;;5054508;28;8850;-74
2023/07/02 14:30:26;;;;;;;;;7.40;5.00;;;;;;;;5059305;28;8751;-81
2023/07/02 14:32:53;;;;;;;;;10.40;7.20;;;;;;;;5051259;28;8861;-85
2023/07/02 14:35:25;;;;;;;;;11.00;8.20;;;;;;;;5052036;28;8873;-84
2023/07/02 14:37:52;;;;;;;;;7.00;6.80;;;;;;;;5061453;28;8854;-83